Time;durP1;ratioP1;P1;durP2;ratioP2;P2;SDS_P1;SDS_P2;PMS_P1;PMS_P2;Temp;Humidity;BMP_temperature;BMP_pressure;BME280_temperature;BME280_humidity;BME280_pressure;Samples;Min_cycle;Max_cycle;Signal;HPM_P1;HPM_P2
2022/05/07 00:00:28;;;;;;;5.20;3.65;;;23.70;46.60;;;;;;4986092;28;20026;-44
2022/05/07 00:02:55;;;;;;;4.93;3.92;;;23.70;46.60;;;;;;4985905;28;20034;-44
2022/05/07 00:05:21;;;;;;;4.45;3.60;;;23.70;46.70;;;;;;4986277;28;20038;-44
2022/05/07 00:07:47;;;;;;;5.63;4.32;;;23.70;46.70;;;;;;4985904;28;20030;-43
2022/05/07 00:10:13;;;;;;;5.80;3.60;;;23.70;46.70;;;;;;4986046;28;20035;-44
2022/05/07 00:12:39;;;;;;;4.55;3.55;;;23.70;46.70;;;;;;4985859;28;20530;-43
2022/05/07 00:15:05;;;;;;;5.35;3.80;;;23.70;46.70;;;;;;4986305;28;20122;-44
2022/05/07 00:20:15;;;;;;;4.90;3.95;;;23.70;46.80;;;;;;4986530;28;20457;-43
2022/05/07 00:22:41;;;;;;;4.78;3.63;;;23.70;46.80;;;;;;4985728;28;20047;-44
2022/05/07 00:25:07;;;;;;;4.57;3.65;;;23.70;46.80;;;;;;4985453;28;20086;-44
2022/05/07 00:27:33;;;;;;;4.60;3.47;;;23.70;46.80;;;;;;4985764;28;20889;-43
2022/05/07 00:29:59;;;;;;;4.38;3.45;;;23.60;46.70;;;;;;4985976;28;20034;-44
2022/05/07 00:32:24;;;;;;;4.60;3.33;;;23.70;46.80;;;;;;4985488;28;20037;-44
2022/05/07 00:34:50;;;;;;;4.47;3.25;;;23.60;46.80;;;;;;4985730;28;20030;-43
2022/05/07 00:37:16;;;;;;;4.68;3.60;;;23.60;46.70;;;;;;4985807;28;20034;-44
2022/05/07 00:39:42;;;;;;;4.53;3.40;;;23.70;46.80;;;;;;4985527;28;20507;-44
2022/05/07 00:42:08;;;;;;;4.82;3.58;;;23.60;46.70;;;;;;4985820;28;20433;-44
2022/05/07 00:44:34;;;;;;;4.50;3.20;;;23.60;46.70;;;;;;4985752;28;20039;-44
2022/05/07 00:47:09;;;;;;;4.30;3.38;;;23.60;46.70;;;;;;4985576;28;20812;-43
2022/05/07 00:49:35;;;;;;;4.70;3.90;;;23.60;46.70;;;;;;4985513;28;20113;-43
2022/05/07 00:52:01;;;;;;;4.15;3.42;;;23.60;46.70;;;;;;4984207;28;20781;-44
2022/05/07 00:54:27;;;;;;;4.55;3.63;;;23.60;46.70;;;;;;4985772;28;20030;-44
2022/05/07 00:56:52;;;;;;;4.40;3.30;;;23.60;46.70;;;;;;4985630;28;20161;-43
2022/05/07 00:59:18;;;;;;;4.95;3.40;;;23.60;46.60;;;;;;4985090;28;20023;-44
2022/05/07 01:01:44;;;;;;;4.57;3.55;;;23.60;46.60;;;;;;4985310;28;20053;-44
2022/05/07 01:04:11;;;;;;;4.50;3.42;;;23.60;46.80;;;;;;4985338;28;20057;-43
2022/05/07 01:06:37;;;;;;;5.38;3.60;;;23.60;46.70;;;;;;4985608;28;20509;-44
2022/05/07 01:09:02;;;;;;;4.43;3.53;;;23.60;46.90;;;;;;4985345;28;20042;-44
2022/05/07 01:11:28;;;;;;;3.75;2.97;;;23.60;46.70;;;;;;4984946;28;20022;-44
2022/05/07 01:13:54;;;;;;;4.30;3.33;;;23.60;46.70;;;;;;4985509;28;20041;-44
2022/05/07 01:16:20;;;;;;;4.10;3.13;;;23.60;46.70;;;;;;4985428;28;20023;-44
2022/05/07 01:18:45;;;;;;;3.95;3.30;;;23.60;46.70;;;;;;4985300;28;20109;-44
2022/05/07 01:21:17;;;;;;;4.70;3.60;;;23.60;46.70;;;;;;4985063;28;20030;-44
2022/05/07 01:23:45;;;;;;;4.32;3.17;;;23.60;46.70;;;;;;4983856;28;20042;-43
2022/05/07 01:26:11;;;;;;;4.03;3.25;;;23.60;46.70;;;;;;4985420;28;20034;-44
2022/05/07 01:28:38;;;;;;;4.07;3.13;;;23.60;46.70;;;;;;4984652;28;20040;-44
2022/05/07 01:31:05;;;;;;;4.65;3.40;;;23.50;46.70;;;;;;4985239;28;20457;-44
2022/05/07 01:33:33;;;;;;;4.10;3.30;;;23.60;46.60;;;;;;4984828;28;20502;-44
2022/05/07 01:36:01;;;;;;;4.97;3.65;;;23.50;46.60;;;;;;4984471;28;20034;-43
2022/05/07 01:38:27;;;;;;;4.40;3.40;;;23.60;46.60;;;;;;4984801;28;20538;-44
2022/05/07 01:40:53;;;;;;;3.90;3.10;;;23.50;46.70;;;;;;4985050;28;20030;-44
2022/05/07 01:43:19;;;;;;;4.35;3.22;;;23.60;46.70;;;;;;4984847;28;20116;-44
2022/05/07 01:45:44;;;;;;;4.15;3.30;;;23.60;46.60;;;;;;4983455;28;20418;-43
2022/05/07 01:48:10;;;;;;;4.68;3.40;;;23.60;46.60;;;;;;4984821;28;20062;-44
2022/05/07 01:50:38;;;;;;;4.20;3.08;;;23.60;46.70;;;;;;4983718;28;20038;-44
2022/05/07 01:53:05;;;;;;;4.00;3.10;;;23.50;46.70;;;;;;4984147;28;20694;-44
2022/05/07 01:55:33;;;;;;;4.30;3.33;;;23.50;46.70;;;;;;4982131;28;20034;-44
2022/05/07 01:57:59;;;;;;;4.50;3.30;;;23.50;46.70;;;;;;4984729;28;20029;-47
2022/05/07 02:00:25;;;;;;;3.80;3.10;;;23.50;46.70;;;;;;4984376;28;20533;-44
2022/05/07 02:02:51;;;;;;;4.32;3.33;;;23.50;46.80;;;;;;4984331;28;20591;-44
2022/05/07 02:05:17;;;;;;;4.97;3.50;;;23.50;46.70;;;;;;4984872;28;20030;-44
2022/05/07 02:07:44;;;;;;;4.00;3.03;;;23.50;46.60;;;;;;4984369;28;20064;-44
2022/05/07 02:10:10;;;;;;;4.13;2.95;;;23.50;46.60;;;;;;4983845;28;20022;-44
2022/05/07 02:12:36;;;;;;;4.40;3.35;;;23.50;46.60;;;;;;4980877;28;20453;-44
2022/05/07 02:15:02;;;;;;;3.85;2.80;;;23.50;46.60;;;;;;4984784;28;20042;-44
2022/05/07 02:17:28;;;;;;;4.70;3.28;;;23.50;46.60;;;;;;4984547;28;20023;-44
2022/05/07 02:19:53;;;;;;;4.70;3.03;;;23.50;46.60;;;;;;4984505;28;20109;-43
2022/05/07 02:22:19;;;;;;;4.03;2.83;;;23.50;46.60;;;;;;4983840;28;20049;-44
2022/05/07 02:24:46;;;;;;;4.30;2.85;;;23.50;46.60;;;;;;4984671;28;20121;-43
2022/05/07 02:27:12;;;;;;;3.78;3.15;;;23.50;46.60;;;;;;4984495;28;20085;-44
2022/05/07 02:29:37;;;;;;;4.38;3.35;;;23.50;46.60;;;;;;4984508;28;20541;-43
2022/05/07 02:32:04;;;;;;;4.13;3.05;;;23.50;46.60;;;;;;4984457;28;20109;-44
2022/05/07 02:34:35;;;;;;;3.78;2.97;;;23.50;46.70;;;;;;4983387;28;20025;-44
2022/05/07 02:37:02;;;;;;;4.20;2.95;;;23.50;46.70;;;;;;4984846;28;20022;-44
2022/05/07 02:39:28;;;;;;;3.97;3.08;;;23.50;46.70;;;;;;4984450;28;20089;-44
2022/05/07 02:44:39;;;;;;;3.90;2.90;;;23.50;46.60;;;;;;4984558;28;20031;-44
2022/05/07 02:47:05;;;;;;;4.40;3.05;;;23.50;46.70;;;;;;4984810;28;20485;-43
2022/05/07 02:49:32;;;;;;;3.80;2.83;;;23.50;46.60;;;;;;4987861;28;20030;-43
2022/05/07 02:51:57;;;;;;;4.35;2.78;;;23.50;46.60;;;;;;4987724;28;20038;-43
2022/05/07 02:54:23;;;;;;;3.60;2.85;;;23.50;46.60;;;;;;4987784;28;20592;-44
2022/05/07 02:56:49;;;;;;;4.18;2.90;;;23.50;46.60;;;;;;4988097;28;20030;-44
2022/05/07 02:59:15;;;;;;;4.90;3.17;;;23.50;46.60;;;;;;4987612;28;20027;-44
2022/05/07 03:01:41;;;;;;;3.83;2.70;;;23.50;46.60;;;;;;4987907;28;20097;-44
2022/05/07 03:04:08;;;;;;;3.83;2.95;;;23.50;46.60;;;;;;4987579;28;20036;-43
2022/05/07 03:06:34;;;;;;;3.45;2.65;;;23.50;46.50;;;;;;4987672;28;20101;-43
2022/05/07 03:09:00;;;;;;;4.00;3.08;;;23.50;46.60;;;;;;4987456;28;20045;-44
2022/05/07 03:11:26;;;;;;;3.70;2.78;;;23.50;46.60;;;;;;4973407;28;20089;-43
2022/05/07 03:13:52;;;;;;;4.07;2.83;;;23.50;46.50;;;;;;4986770;28;20042;-44
2022/05/07 03:16:18;;;;;;;3.58;2.70;;;23.50;46.60;;;;;;4987300;28;20029;-44
2022/05/07 03:18:43;;;;;;;3.63;2.75;;;23.50;46.60;;;;;;4986894;28;20023;-44
2022/05/07 03:21:09;;;;;;;3.85;2.80;;;23.50;46.60;;;;;;4986915;28;20030;-44
2022/05/07 03:23:35;;;;;;;4.10;2.83;;;23.50;46.60;;;;;;4986874;28;20038;-44
2022/05/07 03:26:01;;;;;;;3.78;2.67;;;23.50;46.60;;;;;;4987226;28;20029;-46
2022/05/07 03:28:27;;;;;;;4.85;3.08;;;23.50;46.60;;;;;;4986983;28;20127;-43
2022/05/07 03:30:52;;;;;;;3.35;2.35;;;23.50;46.60;;;;;;4986449;28;20566;-44
2022/05/07 03:33:18;;;;;;;3.65;2.80;;;23.50;46.60;;;;;;4986562;28;20034;-43
2022/05/07 03:35:44;;;;;;;4.40;2.83;;;23.50;46.60;;;;;;4986851;28;20383;-43
2022/05/07 03:38:10;;;;;;;4.53;2.88;;;23.50;46.60;;;;;;4986414;28;20387;-44
2022/05/07 03:40:36;;;;;;;4.55;2.80;;;23.50;46.60;;;;;;4986700;28;20109;-44
2022/05/07 03:43:03;;;;;;;4.18;2.88;;;23.50;46.60;;;;;;4986740;28;20117;-44
2022/05/07 03:45:32;;;;;;;4.13;3.10;;;23.50;46.50;;;;;;4987012;28;20030;-44
2022/05/07 03:47:59;;;;;;;4.40;2.97;;;23.50;46.60;;;;;;4986767;28;20026;-44
2022/05/07 03:50:25;;;;;;;4.18;2.92;;;23.50;46.60;;;;;;4985891;28;20085;-43
2022/05/07 03:55:41;;;;;;;5.03;3.30;;;23.50;46.60;;;;;;4986347;28;20085;-44
2022/05/07 03:58:10;;;;;;;4.30;2.72;;;23.50;46.60;;;;;;4986300;28;20027;-44
2022/05/07 04:00:39;;;;;;;4.10;2.97;;;23.50;46.60;;;;;;4986368;28;20093;-44
2022/05/07 04:03:05;;;;;;;4.90;3.08;;;23.50;46.50;;;;;;4986205;28;20239;-43
2022/05/07 04:05:31;;;;;;;4.65;2.83;;;23.50;46.50;;;;;;4986797;28;20062;-44
2022/05/07 04:07:57;;;;;;;4.35;2.70;;;23.50;46.50;;;;;;4986196;28;20073;-43
2022/05/07 04:10:23;;;;;;;3.95;2.92;;;23.40;46.40;;;;;;4986518;28;20034;-44
2022/05/07 04:12:51;;;;;;;3.45;2.63;;;23.50;46.50;;;;;;4984284;28;20501;-44
2022/05/07 04:15:17;;;;;;;4.15;3.05;;;23.50;46.50;;;;;;4986154;28;20061;-44
2022/05/07 04:17:43;;;;;;;4.05;3.05;;;23.50;47.10;;;;;;4986533;28;20037;-43
2022/05/07 04:20:10;;;;;;;3.85;2.70;;;23.40;46.40;;;;;;4986074;28;20023;-43
2022/05/07 04:22:35;;;;;;;3.95;3.00;;;23.50;46.50;;;;;;4985757;28;20536;-45
2022/05/07 04:25:05;;;;;;;3.45;2.45;;;23.40;46.30;;;;;;4985569;28;20037;-44
2022/05/07 04:27:31;;;;;;;3.65;2.35;;;23.50;46.50;;;;;;4986165;28;20030;-44
2022/05/07 04:29:57;;;;;;;3.50;2.55;;;23.40;46.30;;;;;;4984811;28;20029;-44
2022/05/07 04:32:24;;;;;;;3.97;2.92;;;23.50;46.40;;;;;;4985368;28;20057;-44
2022/05/07 04:34:50;;;;;;;3.47;2.58;;;23.40;46.40;;;;;;4985462;28;20080;-44
2022/05/07 04:37:16;;;;;;;3.78;2.70;;;23.50;46.50;;;;;;4986136;28;20626;-44
2022/05/07 04:39:42;;;;;;;3.60;2.80;;;23.50;46.50;;;;;;4985304;28;20022;-44
2022/05/07 04:42:08;;;;;;;3.30;2.40;;;23.40;46.40;;;;;;4985446;28;20025;-44
2022/05/07 04:44:34;;;;;;;3.33;2.33;;;23.50;46.60;;;;;;4985951;28;20038;-44
2022/05/07 04:47:00;;;;;;;3.88;2.95;;;23.40;46.40;;;;;;4985562;28;20062;-43
2022/05/07 04:49:26;;;;;;;3.60;2.90;;;23.50;46.60;;;;;;4985652;28;20038;-44
2022/05/07 04:51:51;;;;;;;4.00;2.95;;;23.40;46.40;;;;;;4985039;28;20042;-43
2022/05/07 04:54:21;;;;;;;3.55;2.67;;;23.50;46.50;;;;;;4985134;28;20084;-44
2022/05/07 04:56:48;;;;;;;4.00;2.85;;;23.50;46.40;;;;;;4985667;28;20498;-44
2022/05/07 04:59:14;;;;;;;3.78;2.88;;;23.50;46.40;;;;;;4984873;28;20542;-46
2022/05/07 05:01:40;;;;;;;4.30;3.10;;;23.40;46.30;;;;;;4983675;28;20052;-43
2022/05/07 05:04:06;;;;;;;3.63;2.83;;;23.40;46.40;;;;;;4984967;28;20018;-44
2022/05/07 05:06:32;;;;;;;3.72;2.95;;;23.50;46.50;;;;;;4983919;28;20534;-44
2022/05/07 05:08:58;;;;;;;4.00;2.92;;;23.40;46.30;;;;;;4983392;28;20027;-43
2022/05/07 05:11:25;;;;;;;3.92;3.05;;;23.50;47.40;;;;;;4984563;28;20053;-43
2022/05/07 05:13:51;;;;;;;4.07;3.25;;;23.50;47.70;;;;;;4985351;28;20042;-44
2022/05/07 05:16:16;;;;;;;3.78;2.83;;;23.40;47.60;;;;;;4985209;28;20368;-44
2022/05/07 05:18:42;;;;;;;3.90;3.17;;;23.50;47.80;;;;;;4985800;28;20521;-44
2022/05/07 05:21:08;;;;;;;6.13;3.55;;;23.50;47.60;;;;;;4984819;28;20410;-44
2022/05/07 05:23:34;;;;;;;3.97;3.13;;;23.50;47.60;;;;;;4985086;28;20034;-44
2022/05/07 05:26:00;;;;;;;4.25;3.42;;;23.50;47.60;;;;;;4983785;28;20117;-44
2022/05/07 05:28:26;;;;;;;5.03;3.97;;;23.50;47.60;;;;;;4983357;28;20046;-44
2022/05/07 05:30:52;;;;;;;4.40;3.45;;;23.50;47.40;;;;;;4983840;28;20116;-44
2022/05/07 05:33:21;;;;;;;4.70;3.70;;;23.50;47.40;;;;;;4983963;28;20395;-44
2022/05/07 05:35:47;;;;;;;4.40;3.55;;;23.60;47.30;;;;;;4983843;28;20030;-45
2022/05/07 05:38:15;;;;;;;4.30;3.72;;;23.60;47.30;;;;;;4975687;28;20440;-45
2022/05/07 05:40:41;;;;;;;4.40;3.55;;;23.60;47.20;;;;;;4985924;28;20033;-44
2022/05/07 05:43:07;;;;;;;4.72;3.47;;;23.60;47.10;;;;;;5003931;28;20093;-45
2022/05/07 05:45:33;;;;;;;4.63;3.90;;;23.60;47.10;;;;;;4993555;28;20045;-45
2022/05/07 05:48:01;;;;;;;4.47;3.80;;;23.60;47.10;;;;;;4984444;28;20039;-45
2022/05/07 05:50:29;;;;;;;4.38;3.40;;;23.60;47.00;;;;;;4984651;28;20026;-44
2022/05/07 05:52:55;;;;;;;5.50;3.90;;;23.60;47.00;;;;;;4983698;28;20022;-45
2022/05/07 05:55:21;;;;;;;4.57;3.50;;;23.60;46.90;;;;;;4983803;28;20054;-45
2022/05/07 05:57:47;;;;;;;4.93;4.18;;;23.60;46.90;;;;;;4983405;28;20464;-45
2022/05/07 06:00:13;;;;;;;6.05;5.00;;;23.60;46.80;;;;;;4983789;28;20105;-44
2022/05/07 06:02:39;;;;;;;7.55;6.30;;;23.60;46.70;;;;;;4975804;28;20041;-45
2022/05/07 06:05:05;;;;;;;11.55;9.95;;;23.60;46.80;;;;;;4972284;28;20049;-45
2022/05/07 06:07:31;;;;;;;13.15;11.55;;;23.60;47.20;;;;;;4983736;28;20600;-45
2022/05/07 06:09:56;;;;;;;16.95;15.27;;;23.60;47.70;;;;;;4983186;28;20046;-45
2022/05/07 06:12:22;;;;;;;20.45;18.33;;;23.60;47.90;;;;;;4983389;28;20080;-44
2022/05/07 06:14:48;;;;;;;20.45;18.35;;;23.60;47.90;;;;;;4984181;28;20688;-45
2022/05/07 06:17:13;;;;;;;22.52;20.23;;;23.70;47.80;;;;;;4984020;28;20034;-44
2022/05/07 06:19:39;;;;;;;24.10;21.60;;;23.70;47.60;;;;;;4982435;28;20543;-45
2022/05/07 06:22:05;;;;;;;27.65;24.75;;;23.70;47.50;;;;;;4985219;28;20070;-44
2022/05/07 06:27:33;;;;;;;30.98;27.88;;;23.70;47.30;;;;;;4984995;28;21018;-45
2022/05/07 06:30:03;;;;;;;29.95;26.85;;;23.80;47.10;;;;;;4983403;28;20053;-45
2022/05/07 06:32:36;;;;;;;32.25;29.15;;;23.80;47.00;;;;;;4986041;28;20061;-45
2022/05/07 06:35:04;;;;;;;33.22;29.92;;;23.80;47.00;;;;;;4986885;28;20080;-47
2022/05/07 06:37:34;;;;;;;31.45;28.23;;;23.80;47.00;;;;;;4982576;28;20077;-45
2022/05/07 06:40:01;;;;;;;31.65;28.52;;;23.80;46.90;;;;;;4980502;28;20030;-45
2022/05/07 06:42:27;;;;;;;33.58;30.25;;;23.80;46.90;;;;;;4985262;28;20109;-45
2022/05/07 06:44:53;;;;;;;37.65;33.92;;;23.80;46.90;;;;;;4982824;28;20125;-45
2022/05/07 06:47:18;;;;;;;39.72;35.83;;;23.80;46.90;;;;;;4985738;28;20031;-45
2022/05/07 06:49:44;;;;;;;37.95;34.05;;;23.80;46.80;;;;;;4986241;28;20084;-45
2022/05/07 06:52:10;;;;;;;39.72;35.85;;;23.80;47.10;;;;;;4985529;28;20116;-45
2022/05/07 06:54:37;;;;;;;39.30;35.38;;;23.80;47.20;;;;;;4984144;28;20042;-45
2022/05/07 06:57:03;;;;;;;38.15;34.42;;;23.80;47.40;;;;;;4985221;28;20568;-45
2022/05/07 06:59:32;;;;;;;39.65;35.80;;;23.80;47.40;;;;;;4984618;28;20031;-45
2022/05/07 07:01:58;;;;;;;40.47;36.53;;;23.80;47.30;;;;;;4984664;28;20030;-45
2022/05/07 07:04:27;;;;;;;39.85;35.78;;;23.80;47.30;;;;;;4983853;28;20038;-45
2022/05/07 07:06:53;;;;;;;38.95;35.08;;;23.80;47.80;;;;;;4985823;28;20057;-47
2022/05/07 07:09:18;;;;;;;39.78;35.72;;;23.80;48.20;;;;;;4986618;28;20042;-45
2022/05/07 07:11:44;;;;;;;38.60;34.75;;;23.80;48.20;;;;;;4986029;28;20061;-45
2022/05/07 07:14:10;;;;;;;38.35;34.63;;;23.80;48.20;;;;;;4985704;28;20499;-45
2022/05/07 07:16:36;;;;;;;37.97;34.15;;;23.90;48.30;;;;;;4986060;28;20053;-46
2022/05/07 07:19:03;;;;;;;36.72;33.17;;;23.90;48.50;;;;;;4986338;28;20093;-46
2022/05/07 07:21:28;;;;;;;38.58;34.78;;;23.90;48.30;;;;;;4985624;28;20454;-45
2022/05/07 07:23:54;;;;;;;37.92;34.20;;;23.90;48.40;;;;;;4986661;28;20030;-45
2022/05/07 07:26:20;;;;;;;38.03;34.40;;;23.90;48.30;;;;;;4986313;28;20050;-46
2022/05/07 07:28:47;;;;;;;37.80;34.10;;;23.90;48.30;;;;;;4986158;28;20068;-46
2022/05/07 07:31:13;;;;;;;37.53;33.83;;;23.80;48.30;;;;;;4986097;28;20030;-45
2022/05/07 07:33:39;;;;;;;38.58;34.67;;;23.80;48.10;;;;;;4984390;28;20022;-45
2022/05/07 07:36:09;;;;;;;36.28;32.67;;;23.90;48.20;;;;;;4985630;28;20030;-45
2022/05/07 07:38:35;;;;;;;37.35;33.42;;;23.90;48.30;;;;;;4976929;28;20037;-46
2022/05/07 07:41:02;;;;;;;35.22;31.80;;;23.90;48.40;;;;;;4984301;28;20027;-46
2022/05/07 07:43:29;;;;;;;35.38;31.92;;;23.90;48.20;;;;;;4985208;28;20049;-46
2022/05/07 07:48:39;;;;;;;34.97;31.48;;;23.90;48.50;;;;;;4984642;28;20109;-46
2022/05/07 07:51:07;;;;;;;33.75;30.35;;;23.90;48.40;;;;;;4982144;28;20456;-45
2022/05/07 07:53:33;;;;;;;33.65;30.27;;;23.90;48.50;;;;;;4985272;28;20102;-46
2022/05/07 07:55:59;;;;;;;34.05;30.48;;;23.90;48.60;;;;;;4985461;28;20061;-47
2022/05/07 07:58:25;;;;;;;30.65;27.52;;;23.90;48.60;;;;;;4984197;28;20026;-46
2022/05/07 08:00:51;;;;;;;32.17;28.88;;;23.90;48.50;;;;;;4985473;28;20105;-46
2022/05/07 08:03:19;;;;;;;30.52;27.45;;;23.90;48.40;;;;;;4985668;28;20022;-45
2022/05/07 08:05:47;;;;;;;29.95;26.95;;;24.00;48.50;;;;;;4986201;28;20022;-45
2022/05/07 08:13:45;;;;;;;27.73;24.80;;;24.00;48.40;;;;;;4985032;28;20135;-45
2022/05/07 08:16:12;;;;;;;31.60;26.27;;;24.00;48.40;;;;;;4985602;28;20100;-45
2022/05/07 08:18:39;;;;;;;28.98;25.85;;;24.00;48.40;;;;;;4985855;28;20026;-46
2022/05/07 08:21:10;;;;;;;27.00;24.33;;;24.00;48.40;;;;;;4985482;28;20027;-46
2022/05/07 08:23:36;;;;;;;26.40;23.60;;;24.00;48.30;;;;;;4985054;28;20221;-45
2022/05/07 08:26:04;;;;;;;27.20;24.30;;;24.00;48.40;;;;;;4984754;28;20029;-44
2022/05/07 08:28:33;;;;;;;25.75;23.15;;;24.00;48.10;;;;;;4977613;28;20169;-45
2022/05/07 08:31:00;;;;;;;25.65;22.95;;;24.00;47.80;;;;;;4979003;28;20030;-45
2022/05/07 08:33:27;;;;;;;25.30;22.70;;;24.00;47.70;;;;;;4983829;28;20030;-45
2022/05/07 08:35:53;;;;;;;23.73;21.17;;;24.00;47.60;;;;;;4981311;28;20057;-45
2022/05/07 08:38:19;;;;;;;23.45;21.13;;;24.00;47.50;;;;;;4982279;28;20124;-45
2022/05/07 08:40:45;;;;;;;22.77;20.50;;;24.00;47.40;;;;;;4984152;28;20026;-45
2022/05/07 08:43:11;;;;;;;23.17;20.77;;;24.00;47.30;;;;;;4984077;28;20434;-45
2022/05/07 08:45:39;;;;;;;22.33;20.10;;;24.00;47.20;;;;;;4984610;28;20033;-45
2022/05/07 08:48:05;;;;;;;21.55;19.35;;;24.00;47.10;;;;;;4984675;28;20034;-47
2022/05/07 08:50:31;;;;;;;22.10;19.90;;;24.00;47.10;;;;;;4985659;28;20164;-46
2022/05/07 08:52:57;;;;;;;20.55;18.45;;;24.00;47.10;;;;;;4984689;28;20464;-48
2022/05/07 08:55:23;;;;;;;20.38;18.38;;;24.00;47.00;;;;;;4984379;28;20375;-48
2022/05/07 08:57:51;;;;;;;19.23;17.25;;;24.00;46.90;;;;;;4984509;28;20018;-47
2022/05/07 09:00:19;;;;;;;19.73;17.73;;;24.00;46.90;;;;;;4984018;28;20726;-47
2022/05/07 09:02:51;;;;;;;18.90;17.00;;;24.00;46.90;;;;;;4984112;28;20094;-48
2022/05/07 09:05:22;;;;;;;17.95;16.15;;;24.00;47.10;;;;;;4983227;28;20698;-48
2022/05/07 09:07:58;;;;;;;18.45;16.50;;;24.00;46.80;;;;;;4983148;28;20526;-47
2022/05/07 09:10:29;;;;;;;16.90;15.20;;;24.00;47.40;;;;;;4984527;28;20045;-47
2022/05/07 09:13:00;;;;;;;17.98;16.15;;;24.00;46.70;;;;;;4973590;28;20096;-46
2022/05/07 09:15:26;;;;;;;17.88;16.00;;;24.00;46.60;;;;;;4979822;28;20026;-46
2022/05/07 09:17:51;;;;;;;18.48;16.58;;;24.00;46.60;;;;;;4980138;28;20023;-48
2022/05/07 09:20:21;;;;;;;16.90;15.20;;;24.00;46.50;;;;;;4979986;28;20110;-46
2022/05/07 09:22:56;;;;;;;17.67;15.77;;;24.00;46.50;;;;;;4980782;28;20518;-48
2022/05/07 09:25:25;;;;;;;15.80;14.20;;;24.00;46.50;;;;;;4979851;28;20567;-47
2022/05/07 09:27:54;;;;;;;15.00;13.48;;;24.00;46.50;;;;;;4983887;28;20042;-47
2022/05/07 09:30:38;;;;;;;15.68;14.07;;;24.00;46.50;;;;;;4983326;28;20424;-46
2022/05/07 09:33:06;;;;;;;14.90;13.40;;;24.00;46.60;;;;;;4977483;28;20247;-47
2022/05/07 09:35:47;;;;;;;15.27;13.35;;;23.90;48.10;;;;;;4979020;28;20419;-48
2022/05/07 09:38:14;;;;;;;15.32;12.70;;;24.00;47.70;;;;;;4983975;28;20023;-47
2022/05/07 09:40:42;;;;;;;14.82;13.20;;;23.90;47.60;;;;;;4983628;28;20034;-48
2022/05/07 09:43:14;;;;;;;14.82;11.90;;;24.00;47.60;;;;;;4984020;28;20038;-48
2022/05/07 09:45:40;;;;;;;12.87;11.57;;;24.00;47.50;;;;;;4984651;28;20670;-46
2022/05/07 09:48:07;;;;;;;13.35;11.68;;;24.00;48.50;;;;;;4984708;28;20699;-47
2022/05/07 09:58:44;;;;;;;11.55;10.30;;;24.00;48.30;;;;;;4988624;28;20069;-47
2022/05/07 10:01:22;;;;;;;10.88;9.63;;;24.00;48.10;;;;;;4988453;28;20486;-47
2022/05/07 10:04:21;;;;;;;11.35;9.52;;;24.00;48.00;;;;;;4985390;28;20427;-47
2022/05/07 10:07:07;;;;;;;15.75;14.13;;;24.00;48.00;;;;;;4969175;28;20117;-48
2022/05/07 10:09:48;;;;;;;14.55;13.02;;;24.00;50.00;;;;;;4985205;28;20097;-47
2022/05/07 10:12:19;;;;;;;13.75;12.27;;;24.10;50.60;;;;;;4988006;28;20054;-47
2022/05/07 10:14:45;;;;;;;12.88;11.45;;;24.10;51.10;;;;;;4983670;28;20034;-47
2022/05/07 10:17:13;;;;;;;12.60;11.30;;;24.10;50.40;;;;;;4987777;28;20030;-46
2022/05/07 10:19:44;;;;;;;14.27;11.52;;;24.10;51.30;;;;;;4985807;28;20026;-46
2022/05/07 10:22:18;;;;;;;11.00;9.90;;;24.10;50.90;;;;;;4982482;28;20106;-47
2022/05/07 10:24:45;;;;;;;11.38;9.13;;;24.10;51.30;;;;;;4979020;28;20038;-47
2022/05/07 10:27:31;;;;;;;10.63;9.55;;;24.20;51.60;;;;;;4985877;28;20069;-47
2022/05/07 10:30:23;;;;;;;12.00;9.75;;;24.20;52.30;;;;;;4987839;28;20035;-47
2022/05/07 10:32:58;;;;;;;16.10;10.27;;;24.20;51.80;;;;;;4986181;28;20675;-46
2022/05/07 10:35:53;;;;;;;11.65;10.40;;;24.20;52.20;;;;;;4987804;28;20050;-47
2022/05/07 10:38:28;;;;;;;11.05;9.85;;;24.20;53.30;;;;;;4987810;28;20026;-46
2022/05/07 10:41:01;;;;;;;10.45;9.13;;;24.20;54.90;;;;;;4987463;28;20034;-46
2022/05/07 10:43:38;;;;;;;11.30;9.30;;;24.20;54.70;;;;;;4987532;28;20027;-47
2022/05/07 10:46:04;;;;;;;10.10;8.95;;;24.20;53.90;;;;;;4987937;28;20041;-46
2022/05/07 10:48:42;;;;;;;11.90;8.95;;;24.20;53.30;;;;;;4987981;28;20080;-47
2022/05/07 10:51:35;;;;;;;9.70;7.95;;;24.30;53.00;;;;;;4987312;28;20643;-47
2022/05/07 10:54:05;;;;;;;11.43;8.40;;;24.30;52.50;;;;;;4986567;28;20046;-47
2022/05/07 10:56:33;;;;;;;10.38;8.30;;;24.30;52.20;;;;;;4987280;28;20019;-47
2022/05/07 10:59:00;;;;;;;8.95;7.93;;;24.30;51.80;;;;;;4986934;28;20065;-47
2022/05/07 11:01:27;;;;;;;8.95;7.50;;;24.20;51.60;;;;;;4987154;28;20538;-47
2022/05/07 11:04:04;;;;;;;8.55;6.80;;;24.30;51.50;;;;;;4987282;28;20388;-47
2022/05/07 11:06:39;;;;;;;9.55;7.40;;;24.30;51.40;;;;;;4987256;28;20518;-46
2022/05/07 11:09:05;;;;;;;8.80;6.82;;;24.30;51.20;;;;;;4986648;28;20031;-47
2022/05/07 11:11:44;;;;;;;8.82;6.85;;;24.30;51.00;;;;;;4986864;28;20034;-47
2022/05/07 11:14:18;;;;;;;7.72;6.50;;;24.30;50.70;;;;;;4986946;28;20035;-47
2022/05/07 11:16:44;;;;;;;7.85;6.38;;;24.30;50.50;;;;;;4987076;28;20023;-47
2022/05/07 11:19:10;;;;;;;6.82;5.97;;;24.20;50.30;;;;;;4987043;28;20097;-46
2022/05/07 11:21:37;;;;;;;7.32;6.50;;;24.30;50.30;;;;;;4967508;28;20033;-47
2022/05/07 11:24:04;;;;;;;7.50;6.00;;;24.20;50.20;;;;;;4969576;28;20034;-47
2022/05/07 11:26:30;;;;;;;7.07;6.15;;;24.20;50.20;;;;;;4980749;28;20380;-47
2022/05/07 11:28:56;;;;;;;8.90;6.32;;;24.20;50.10;;;;;;4985022;28;20027;-48
2022/05/07 11:31:30;;;;;;;7.05;5.68;;;24.30;50.10;;;;;;4986153;28;20046;-47
2022/05/07 11:34:06;;;;;;;7.93;5.82;;;24.20;50.00;;;;;;4986918;28;20243;-47
2022/05/07 11:36:33;;;;;;;7.68;5.75;;;24.20;49.80;;;;;;4986106;28;20671;-48
2022/05/07 11:39:07;;;;;;;7.45;5.95;;;24.20;49.70;;;;;;4986309;28;20390;-47
2022/05/07 11:41:35;;;;;;;7.80;5.88;;;24.20;49.70;;;;;;4981866;28;20081;-46
2022/05/07 11:46:56;;;;;;;6.88;5.22;;;24.20;50.70;;;;;;4986123;28;20025;-44
2022/05/07 11:49:35;;;;;;;8.25;6.20;;;24.20;50.60;;;;;;4975144;28;20375;-46
2022/05/07 11:52:08;;;;;;;6.07;5.28;;;24.30;50.70;;;;;;4981336;28;20423;-47
2022/05/07 11:54:34;;;;;;;7.60;5.18;;;24.30;50.50;;;;;;4979919;28;20043;-46
2022/05/07 11:57:00;;;;;;;7.00;5.22;;;24.30;50.40;;;;;;4976704;28;20014;-46
2022/05/07 11:59:26;;;;;;;6.78;5.43;;;24.30;50.20;;;;;;4979443;28;20041;-46
2022/05/07 12:01:52;;;;;;;6.78;5.60;;;24.30;50.00;;;;;;4976608;28;20692;-46
2022/05/07 12:04:18;;;;;;;6.47;4.97;;;24.30;50.00;;;;;;4976170;28;20037;-46
2022/05/07 12:06:55;;;;;;;5.78;5.05;;;24.40;49.80;;;;;;4976230;28;20084;-45
2022/05/07 12:09:21;;;;;;;6.50;4.78;;;24.40;49.70;;;;;;5007099;28;20506;-45
2022/05/07 12:11:46;;;;;;;5.63;4.70;;;24.30;49.60;;;;;;4976220;28;20035;-45
2022/05/07 12:14:12;;;;;;;6.38;5.03;;;24.40;49.50;;;;;;4974899;28;20668;-46
2022/05/07 12:19:30;;;;;;;8.40;4.55;;;24.40;49.10;;;;;;4975519;28;20593;-47
2022/05/07 12:30:13;;;;;;;5.60;4.38;;;24.50;49.00;;;;;;4983569;28;20041;-46
2022/05/07 12:32:46;;;;;;;5.30;4.20;;;24.50;48.80;;;;;;4978539;28;20027;-45
2022/05/07 12:35:12;;;;;;;;;;;24.50;48.80;;;;;;4975648;28;20415;-44
2022/05/07 12:37:38;;;;;;;6.00;4.18;;;24.50;48.80;;;;;;4976360;28;20015;-45
2022/05/07 12:40:07;;;;;;;5.68;4.25;;;24.50;48.50;;;;;;4980316;28;20193;-46
2022/05/07 12:42:35;;;;;;;5.45;4.30;;;24.50;48.50;;;;;;4977065;28;20062;-45
2022/05/07 12:45:01;;;;;;;5.43;4.10;;;24.50;48.40;;;;;;4974741;28;20487;-45
2022/05/07 12:47:28;;;;;;;5.55;4.30;;;24.50;48.40;;;;;;4975371;28;20070;-46
2022/05/07 12:49:53;;;;;;;5.25;4.20;;;24.50;48.50;;;;;;4974775;28;20046;-46
2022/05/07 12:52:22;;;;;;;4.70;4.00;;;24.50;48.30;;;;;;4976132;28;20499;-46
2022/05/07 12:54:48;;;;;;;4.80;3.70;;;24.60;48.40;;;;;;4976069;28;20031;-46
2022/05/07 12:57:13;;;;;;;5.13;3.75;;;24.60;48.00;;;;;;4981462;28;20487;-45
2022/05/07 12:59:39;;;;;;;5.03;3.67;;;24.60;47.90;;;;;;4984350;28;20107;-45
2022/05/07 13:02:08;;;;;;;4.28;3.45;;;24.60;47.70;;;;;;4984244;28;20647;-45
2022/05/07 13:04:35;;;;;;;5.40;3.75;;;24.60;47.70;;;;;;4983316;28;20023;-45
2022/05/07 13:07:02;;;;;;;5.88;3.72;;;24.60;47.60;;;;;;4982961;28;20030;-47
2022/05/07 13:09:27;;;;;;;6.32;3.95;;;24.60;47.70;;;;;;4979330;28;20253;-46
2022/05/07 13:11:53;;;;;;;4.88;3.70;;;24.60;48.10;;;;;;4978880;28;20038;-46
2022/05/07 13:14:20;;;;;;;7.03;4.15;;;24.60;48.50;;;;;;4984938;28;20038;-46
2022/05/07 13:16:46;;;;;;;6.72;4.70;;;24.60;48.60;;;;;;4968540;28;20543;-46
2022/05/07 13:19:12;;;;;;;6.18;4.38;;;24.70;48.60;;;;;;4966227;28;20062;-46
2022/05/07 13:21:38;;;;;;;5.60;4.05;;;24.60;48.70;;;;;;4981760;28;20483;-45
2022/05/07 13:24:04;;;;;;;6.20;4.05;;;24.70;48.90;;;;;;4983459;28;20414;-46